Impacts METAR Board
IDs:

KTPL - Temple/Miller Rgnl, TX, US

Updated at: 2300 UTC 18 Oct 2019
Potential Impact None Slight Moderate High
Time 18/11Z 18/12Z 18/13Z 18/14Z 18/15Z 18/16Z 18/17Z 18/18Z 18/19Z 18/20Z 18/21Z 18/22Z 18/23Z
Temp46 46 46 53 60 65 69 73 76 78 80 80 78
Dewpt46 46 46 53 53 49 46 45 41 33 32 35 37
Altim29.92 29.92 29.91 29.92 29.91 29.91 29.89 29.85 29.81 29.78 29.76 29.74 29.74
VIS10 10 10 10 10 10 10 10 10 10 10 10 10
CIG-- -- -- -- -- -- -- -- -- -- -- -- --
CoverCLRCLRCLRCLRCLRCLRCLRCLRCLRCLRCLRCLRCLR
FltCatVFRVFRVFRVFRVFRVFRVFRVFRVFRVFRVFRVFRVFR
WX--------------------------
WDir00800130200150130120120130120140
WSpd0 0 3 0 5 4 5 7 7 7 11 9 10
WGst-- -- -- -- -- -- -- -- -- -- -- -- --
Raw hourly METARs
KTPL 181051Z AUTO 00000KT 10SM CLR 08/08 A2992 RMK AO2 SLP125 T00780078
KTPL 181151Z AUTO 00000KT 10SM CLR 08/08 A2992 RMK AO2 SLP125 T00780078 10122 20067 56001
KTPL 181251Z AUTO 08003KT 10SM CLR 08/08 A2991 RMK AO2 SLP122 T00780078
KTPL 181351Z AUTO 00000KT 10SM CLR 12/12 A2992 RMK AO2 SLP126 T01170117
KTPL 181451Z AUTO 13005KT 10SM CLR 16/12 A2991 RMK AO2 SLP122 T01560117 56001
KTPL 181551Z AUTO 20004KT 10SM CLR 18/09 A2991 RMK AO2 SLP121 T01830094
KTPL 181651Z AUTO 15005KT 10SM CLR 21/08 A2989 RMK AO2 SLP115 T02060078
KTPL 181751Z AUTO 13007KT 10SM CLR 23/07 A2985 RMK AO2 SLP101 T02280072 10228 20067 58021
KTPL 181851Z AUTO 12007KT 090V150 10SM CLR 24/05 A2981 RMK AO2 SLP088 T02440050
KTPL 181951Z AUTO 12007KT 10SM CLR 26/01 A2978 RMK AO2 SLP076 T02560006
KTPL 182051Z AUTO 13011KT 10SM CLR 27/00 A2976 RMK AO2 SLP068 T02670000 56031
KTPL 182151Z AUTO 12009KT 10SM CLR 27/02 A2974 RMK AO2 SLP062 T02670017
KTPL 182251Z AUTO 14010KT 10SM CLR 26/03 A2974 RMK AO2 SLP064 T02560028